createdAt,value
2023-01-21T00:00:56.113Z,20.4
2023-01-21T00:02:55.708Z,18.2
2023-01-21T00:04:55.516Z,27.6
2023-01-21T00:06:55.421Z,18.1
2023-01-21T00:08:58.087Z,16
2023-01-21T00:10:55.286Z,17.9
2023-01-21T00:12:55.293Z,16.1
2023-01-21T00:14:54.996Z,21.5
2023-01-21T00:16:54.974Z,19.1
2023-01-21T00:18:55.732Z,17.9
2023-01-21T00:20:54.705Z,15
2023-01-21T00:22:54.543Z,17.8
2023-01-21T00:24:54.537Z,14.2
2023-01-21T00:26:54.434Z,15.1
2023-01-21T00:28:54.396Z,15.7
2023-01-21T00:30:57.467Z,14.4
2023-01-21T00:32:54.187Z,17.2
2023-01-21T00:34:54.385Z,19.3
2023-01-21T00:36:56.362Z,15.1
2023-01-21T00:38:53.882Z,17.2
2023-01-21T00:40:59.789Z,15.2
2023-01-21T00:42:53.595Z,12.5
2023-01-21T00:44:53.569Z,14.6
2023-01-21T00:46:53.419Z,16.4
2023-01-21T00:48:53.395Z,21.9
2023-01-21T00:50:53.494Z,18.2
2023-01-21T00:52:53.617Z,28.4
2023-01-21T00:54:52.970Z,13.8
2023-01-21T00:56:52.885Z,14.6
2023-01-21T00:58:52.948Z,21.6
2023-01-21T01:01:00.368Z,17.5
2023-01-21T01:02:52.655Z,19.1
2023-01-21T01:04:52.785Z,18.5
2023-01-21T01:06:52.417Z,19.2
2023-01-21T01:08:52.293Z,14.3
2023-01-21T01:10:54.128Z,15.9
2023-01-21T01:12:52.097Z,14.6
2023-01-21T01:14:52.022Z,18.2
2023-01-21T01:16:52.194Z,19.9
2023-01-21T01:18:51.833Z,16.9
2023-01-21T01:20:52.039Z,21
2023-01-21T01:22:51.538Z,19.1
2023-01-21T01:24:51.486Z,23.3
2023-01-21T01:26:51.392Z,21
2023-01-21T01:28:52.610Z,20.7
2023-01-21T01:30:51.444Z,17
2023-01-21T01:32:51.122Z,12.1
2023-01-21T01:34:50.997Z,16.4
2023-01-21T01:36:50.852Z,17.9
2023-01-21T01:38:51.557Z,16
2023-01-21T01:40:51.619Z,13
2023-01-21T01:42:50.528Z,17.3
2023-01-21T01:44:59.579Z,18.1
2023-01-21T01:46:50.456Z,22.8
2023-01-21T01:48:56.290Z,14.7
2023-01-21T01:50:50.280Z,18.8
2023-01-21T01:52:50.194Z,14
2023-01-21T01:54:54.670Z,17.6
2023-01-21T01:56:55.766Z,24.6
2023-01-21T01:58:50.052Z,12.8
2023-01-21T02:00:49.887Z,18.9
2023-01-21T02:02:49.553Z,18.2
2023-01-21T02:04:54.762Z,17
2023-01-21T02:06:51.657Z,15.2
2023-01-21T02:08:50.691Z,18.4
2023-01-21T02:10:49.372Z,15.6
2023-01-21T02:12:49.075Z,16.5
2023-01-21T02:14:49.551Z,22
2023-01-21T02:17:05.507Z,18.8
2023-01-21T02:18:57.708Z,13.3
2023-01-21T02:21:19.236Z,14.4
2023-01-21T02:22:58.495Z,18.3
2023-01-21T02:25:17.533Z,20.1
2023-01-21T02:27:06.671Z,16.6
2023-01-21T02:29:15.787Z,19.9
2023-01-21T02:31:18.275Z,22.8
2023-01-21T02:33:16.742Z,16.4
2023-01-21T02:34:55.080Z,15.2
2023-01-21T02:37:00.071Z,12.6
2023-01-21T02:38:55.536Z,20.8
2023-01-21T02:40:58.910Z,13.7
2023-01-21T02:42:54.505Z,18.1
2023-01-21T02:44:56.939Z,12.7
2023-01-21T02:46:52.124Z,15.1
2023-01-21T02:48:53.517Z,20.6
2023-01-21T02:50:50.690Z,15.9
2023-01-21T02:52:54.621Z,15.4
2023-01-21T02:54:50.539Z,14.8
2023-01-21T02:56:46.677Z,16.9
2023-01-21T02:58:50.880Z,17.8
2023-01-21T03:00:57.211Z,22
2023-01-21T03:03:04.297Z,15.3
2023-01-21T03:04:57.382Z,14.7
2023-01-21T03:06:58.452Z,16.3
2023-01-21T03:08:51.931Z,15
2023-01-21T03:10:52.172Z,17.7
2023-01-21T03:12:55.157Z,16.8
2023-01-21T03:14:54.519Z,14.6
2023-01-21T03:16:48.309Z,15
2023-01-21T03:18:48.663Z,23.3
2023-01-21T03:20:50.172Z,22.1
2023-01-21T03:22:47.712Z,16.4
2023-01-21T03:24:48.447Z,19.3
2023-01-21T03:26:49.928Z,19.6
2023-01-21T03:28:50.150Z,20.6
2023-01-21T03:30:49.548Z,21.1
2023-01-21T03:32:48.870Z,14.3
2023-01-21T03:34:49.451Z,17.1
2023-01-21T03:36:50.212Z,17.1
2023-01-21T03:38:50.107Z,17.2
2023-01-21T03:40:48.137Z,17.1
2023-01-21T03:42:46.299Z,17.6
2023-01-21T03:44:45.983Z,15.4
2023-01-21T03:46:52.018Z,18.5
2023-01-21T03:48:49.776Z,23.7
2023-01-21T03:50:49.084Z,21.3
2023-01-21T03:52:45.177Z,17
2023-01-21T03:54:46.847Z,13.7
2023-01-21T03:56:43.433Z,14
2023-01-21T03:58:43.418Z,16.8
2023-01-21T04:00:43.271Z,15.3
2023-01-21T04:02:43.353Z,15
2023-01-21T04:04:43.365Z,17.7
2023-01-21T04:06:42.863Z,23.5
2023-01-21T04:08:43.033Z,15.2
2023-01-21T04:10:42.905Z,16.8
2023-01-21T04:12:42.805Z,17.2
2023-01-21T04:14:42.610Z,15.4
2023-01-21T04:16:42.401Z,15.1
2023-01-21T04:18:42.198Z,17.6
2023-01-21T04:20:42.073Z,16
2023-01-21T04:22:42.018Z,15.8
2023-01-21T04:24:41.974Z,15.5
2023-01-21T04:26:41.775Z,17.4
2023-01-21T04:28:41.715Z,12.7
2023-01-21T04:30:41.776Z,15.7
2023-01-21T04:32:41.703Z,15.3
2023-01-21T04:34:41.471Z,12.4
2023-01-21T04:36:41.229Z,11.9
2023-01-21T04:38:41.123Z,17
2023-01-21T04:40:41.287Z,17.7
2023-01-21T04:42:42.417Z,17.2
2023-01-21T04:44:40.802Z,15.8
2023-01-21T04:46:40.793Z,14.7
2023-01-21T04:48:40.581Z,17.1
2023-01-21T04:50:40.526Z,16.5
2023-01-21T04:52:41.148Z,14.3
2023-01-21T04:54:40.178Z,16
2023-01-21T04:56:40.132Z,15.3
2023-01-21T04:58:40.176Z,12
2023-01-21T05:00:39.959Z,11.5
2023-01-21T05:02:39.872Z,15
2023-01-21T05:04:39.698Z,20.8
2023-01-21T05:06:39.640Z,14
2023-01-21T05:08:39.559Z,14
2023-01-21T05:10:39.379Z,12.9
2023-01-21T05:12:39.283Z,15
2023-01-21T05:14:39.308Z,19.2
2023-01-21T05:16:39.038Z,12.6
2023-01-21T05:18:39.098Z,11.9
2023-01-21T05:20:38.717Z,15.5
2023-01-21T05:22:39.049Z,15.3
2023-01-21T05:24:38.533Z,18.9
2023-01-21T05:26:38.391Z,13.9
2023-01-21T05:28:38.211Z,14.8
2023-01-21T05:30:40.714Z,13
2023-01-21T05:32:37.947Z,13.9
2023-01-21T05:34:37.825Z,13.9
2023-01-21T05:36:38.461Z,20.6
2023-01-21T05:38:37.615Z,15.1
2023-01-21T05:40:37.464Z,8.4
2023-01-21T05:42:37.375Z,16.5
2023-01-21T05:44:37.319Z,13
2023-01-21T05:46:37.108Z,16
2023-01-21T05:48:36.949Z,11.5
2023-01-21T05:50:38.093Z,14.5
2023-01-21T05:52:37.063Z,10.8
2023-01-21T05:54:36.638Z,11.8
2023-01-21T05:56:36.882Z,13.2
2023-01-21T05:58:36.526Z,13.1
2023-01-21T06:00:36.311Z,14.3
2023-01-21T06:02:36.101Z,12.6
2023-01-21T06:04:36.011Z,13.9
2023-01-21T06:06:35.876Z,10.1
2023-01-21T06:08:35.807Z,9.7
2023-01-21T06:10:35.992Z,11.4
2023-01-21T06:12:35.524Z,9.9
2023-01-21T06:14:35.288Z,12.3
2023-01-21T06:16:35.239Z,12.4
2023-01-21T06:18:35.067Z,11.9
2023-01-21T06:20:35.725Z,11.1
2023-01-21T06:22:34.797Z,9
2023-01-21T06:24:34.695Z,8.1
2023-01-21T06:26:34.589Z,7
2023-01-21T06:28:34.442Z,12.2
2023-01-21T06:30:34.221Z,6.5
2023-01-21T06:32:35.380Z,10.5
2023-01-21T06:34:34.056Z,10.9
2023-01-21T06:36:33.911Z,10.6
2023-01-21T06:38:34.428Z,10
2023-01-21T06:40:33.752Z,12.1
2023-01-21T06:42:33.567Z,8.5
2023-01-21T06:44:33.574Z,12
2023-01-21T06:46:33.536Z,11.6
2023-01-21T06:48:33.123Z,8.6
2023-01-21T06:50:33.096Z,10.2
2023-01-21T06:52:32.896Z,11.9
2023-01-21T06:54:32.704Z,9.3
2023-01-21T06:56:33.174Z,11.3
2023-01-21T06:58:32.546Z,9.8
2023-01-21T07:00:32.428Z,20.3
2023-01-21T07:02:32.264Z,11.9
2023-01-21T07:04:32.118Z,10.4
2023-01-21T07:06:31.972Z,13.3
2023-01-21T07:08:31.976Z,12.9
2023-01-21T07:10:31.804Z,8.8
2023-01-21T07:12:31.658Z,7.4
2023-01-21T07:14:31.454Z,9
2023-01-21T07:16:31.392Z,11.4
2023-01-21T07:18:31.157Z,7.9
2023-01-21T07:20:31.019Z,10.9
2023-01-21T07:22:33.058Z,11.2
2023-01-21T07:24:30.829Z,10.6
2023-01-21T07:26:30.653Z,10.1
2023-01-21T07:28:30.654Z,9.3
2023-01-21T07:30:30.612Z,8.4
2023-01-21T07:32:30.165Z,8.1
2023-01-21T07:34:30.241Z,7.9
2023-01-21T07:36:29.966Z,6.9
2023-01-21T07:38:29.749Z,9.2
2023-01-21T07:40:30.349Z,9.7
2023-01-21T07:42:29.556Z,7.9
2023-01-21T07:44:29.883Z,7
2023-01-21T07:46:29.256Z,6.8
2023-01-21T07:48:29.080Z,9.1
2023-01-21T07:50:29.036Z,10
2023-01-21T07:52:28.861Z,11.3
2023-01-21T07:54:28.807Z,8.1
2023-01-21T07:56:28.675Z,7.2
2023-01-21T07:58:28.604Z,7.6
2023-01-21T08:00:28.288Z,7
2023-01-21T08:02:28.273Z,8.3
2023-01-21T08:04:28.070Z,7.5
2023-01-21T08:06:27.885Z,6.9
2023-01-21T08:08:27.795Z,7.9
2023-01-21T08:10:27.943Z,8.9
2023-01-21T08:12:27.517Z,14.9
2023-01-21T08:14:27.659Z,9.8
2023-01-21T08:16:27.344Z,8.6
2023-01-21T08:18:27.023Z,9.4
2023-01-21T08:20:27.317Z,15
2023-01-21T08:22:26.879Z,18.7
2023-01-21T08:24:27.659Z,21.9
2023-01-21T08:26:26.556Z,16.5
2023-01-21T08:28:26.442Z,39.5
2023-01-21T08:30:26.774Z,28.7
2023-01-21T08:32:29.212Z,15.1
2023-01-21T08:34:26.102Z,15.2
2023-01-21T08:36:26.295Z,10.8
2023-01-21T08:38:25.763Z,11.6
2023-01-21T08:40:25.825Z,10.3
2023-01-21T08:42:25.602Z,11.9
2023-01-21T08:44:25.527Z,9.4
2023-01-21T08:46:25.507Z,7.7
2023-01-21T08:48:25.222Z,10.4
2023-01-21T08:50:25.164Z,12.1
2023-01-21T08:52:25.027Z,11.1
2023-01-21T08:54:25.375Z,10.8
2023-01-21T08:56:24.932Z,10.8
2023-01-21T08:58:24.595Z,10.3
2023-01-21T09:00:24.929Z,8.9
2023-01-21T09:02:24.571Z,8.6
2023-01-21T09:04:24.393Z,10.5
2023-01-21T09:06:25.712Z,8
2023-01-21T09:08:24.053Z,13.4
2023-01-21T09:10:23.967Z,8.1
2023-01-21T09:12:23.864Z,7.9
2023-01-21T09:14:23.729Z,6.5
2023-01-21T09:16:23.728Z,5.9
2023-01-21T09:18:23.612Z,6.7
2023-01-21T09:20:23.267Z,7.3
2023-01-21T09:22:23.216Z,6.7
2023-01-21T09:24:23.116Z,4.4
2023-01-21T09:26:23.638Z,6
2023-01-21T09:28:23.026Z,5.8
2023-01-21T09:30:22.764Z,9.6
2023-01-21T09:32:22.644Z,5.3
2023-01-21T09:34:22.463Z,7.1
2023-01-21T09:36:24.141Z,8.1
2023-01-21T09:38:22.584Z,7.6
2023-01-21T09:40:22.097Z,6.1
2023-01-21T09:42:26.996Z,6.3
2023-01-21T09:44:26.608Z,4.8
2023-01-21T09:46:31.939Z,6
2023-01-21T09:48:28.777Z,11.7
2023-01-21T09:50:23.253Z,9.8
2023-01-21T09:52:29.134Z,8.9
2023-01-21T09:54:26.155Z,9.8
2023-01-21T09:56:30.644Z,7.4
2023-01-21T09:58:27.063Z,8.5
2023-01-21T10:00:36.177Z,7.3
2023-01-21T10:02:29.496Z,7.7
2023-01-21T10:04:32.322Z,9.1
2023-01-21T10:06:28.649Z,9.8
2023-01-21T10:08:29.815Z,8.9
2023-01-21T10:10:27.912Z,8.9
2023-01-21T10:12:32.024Z,10
2023-01-21T10:14:43.221Z,8.7
2023-01-21T10:16:29.159Z,11.2
2023-01-21T10:18:27.966Z,10.3
2023-01-21T10:20:24.916Z,9.5
2023-01-21T10:22:25.990Z,11
2023-01-21T10:24:25.055Z,10.1
2023-01-21T10:26:19.458Z,7.2
2023-01-21T10:28:22.830Z,7.4
2023-01-21T10:30:23.740Z,6.6
2023-01-21T10:32:24.533Z,5.6
2023-01-21T10:34:19.608Z,6.6
2023-01-21T10:36:35.126Z,7.7
2023-01-21T10:38:25.971Z,6.2
2023-01-21T10:40:24.930Z,6
2023-01-21T10:42:37.717Z,5.7
2023-01-21T10:44:27.457Z,7.3
2023-01-21T10:46:27.532Z,5.9
2023-01-21T10:48:23.660Z,8.4
2023-01-21T10:50:29.336Z,7.3
2023-01-21T10:52:24.565Z,9.8
2023-01-21T10:54:29.005Z,6.3
2023-01-21T10:56:25.972Z,9.1
2023-01-21T10:58:26.541Z,9.7
2023-01-21T11:00:22.041Z,15.3
2023-01-21T11:02:22.588Z,10.8
2023-01-21T11:04:20.897Z,8.9
2023-01-21T11:06:18.654Z,11.2
2023-01-21T11:08:20.698Z,9.2
2023-01-21T11:10:21.513Z,9.2
2023-01-21T11:12:18.623Z,8.7
2023-01-21T11:14:16.520Z,8.6
2023-01-21T11:16:31.050Z,10
2023-01-21T11:18:30.439Z,9
2023-01-21T11:20:22.015Z,9.3
2023-01-21T11:22:21.302Z,7.8
2023-01-21T11:24:21.116Z,10
2023-01-21T11:26:20.582Z,7.7
2023-01-21T11:28:25.459Z,6.6
2023-01-21T11:30:50.013Z,7.7
2023-01-21T11:32:19.904Z,8.8
2023-01-21T11:34:17.768Z,8.3
2023-01-21T11:36:17.515Z,8.9
2023-01-21T11:38:24.234Z,9.9
2023-01-21T11:40:24.159Z,9.2
2023-01-21T11:42:16.958Z,8.5
2023-01-21T11:44:17.946Z,6.8
2023-01-21T11:46:27.483Z,7
2023-01-21T11:48:20.346Z,7.4
2023-01-21T11:50:17.401Z,8.3
2023-01-21T11:52:17.687Z,9.3
2023-01-21T11:54:16.253Z,10.4
2023-01-21T11:56:15.211Z,10.9
2023-01-21T11:58:19.164Z,7
2023-01-21T12:00:19.467Z,6.2
2023-01-21T12:02:17.830Z,7.6
2023-01-21T12:04:14.964Z,8.5
2023-01-21T12:06:18.620Z,7.9
2023-01-21T12:08:21.042Z,6.6
2023-01-21T12:10:25.656Z,9.9
2023-01-21T12:12:28.041Z,8.6
2023-01-21T12:14:24.290Z,7.7
2023-01-21T12:16:29.725Z,10.5
2023-01-21T12:18:29.371Z,8
2023-01-21T12:20:24.756Z,7.8
2023-01-21T12:22:28.521Z,7.8
2023-01-21T12:24:23.773Z,14.6
2023-01-21T12:26:28.290Z,12.9
2023-01-21T12:28:29.130Z,8.3
2023-01-21T12:30:24.271Z,9.7
2023-01-21T12:32:17.275Z,9.1
2023-01-21T12:34:23.134Z,6.7
2023-01-21T12:36:16.971Z,6.6
2023-01-21T12:38:17.805Z,7.4
2023-01-21T12:40:17.891Z,8.3
2023-01-21T12:42:18.391Z,8.1
2023-01-21T12:44:23.853Z,7.4
2023-01-21T12:46:16.259Z,6.8
2023-01-21T12:48:18.716Z,9.9
2023-01-21T12:50:22.037Z,9.7
2023-01-21T12:52:16.096Z,6.8
2023-01-21T12:54:18.665Z,5.5
2023-01-21T12:56:23.090Z,4.9
2023-01-21T12:58:13.640Z,5.7
2023-01-21T13:00:18.193Z,5.9
2023-01-21T13:02:21.813Z,3.9
2023-01-21T13:04:26.251Z,7
2023-01-21T13:06:14.529Z,5.8
2023-01-21T13:08:29.384Z,3.7
2023-01-21T13:10:18.058Z,6.7
2023-01-21T13:12:14.915Z,3.9
2023-01-21T13:14:22.918Z,5.1
2023-01-21T13:16:10.836Z,5.3
2023-01-21T13:18:14.776Z,5.6
2023-01-21T13:20:14.272Z,4.6
2023-01-21T13:22:21.957Z,7.3
2023-01-21T13:24:15.952Z,6.3
2023-01-21T13:26:14.669Z,3.9
2023-01-21T13:28:16.401Z,4.1
2023-01-21T13:30:19.151Z,4.8
2023-01-21T13:32:27.991Z,5.4
2023-01-21T13:34:17.125Z,6.2
2023-01-21T13:36:24.259Z,5.4
2023-01-21T13:38:20.619Z,5.3
2023-01-21T13:40:25.089Z,3.8
2023-01-21T13:42:25.738Z,3.8
2023-01-21T13:44:32.435Z,7
2023-01-21T13:46:18.352Z,5.1
2023-01-21T13:48:22.776Z,4.8
2023-01-21T13:50:18.192Z,4.8
2023-01-21T13:52:12.085Z,5.2
2023-01-21T13:54:23.578Z,3.9
2023-01-21T13:56:21.847Z,5.1
2023-01-21T13:58:10.141Z,6.5
2023-01-21T14:00:12.890Z,4.8
2023-01-21T14:02:11.259Z,5.6
2023-01-21T14:04:12.857Z,4
2023-01-21T14:06:10.845Z,5.5
2023-01-21T14:08:13.730Z,3.5
2023-01-21T14:10:13.716Z,4.3
2023-01-21T14:12:09.017Z,4.8
2023-01-21T14:14:31.320Z,4.7
2023-01-21T14:16:21.741Z,4.9
2023-01-21T14:18:16.370Z,5.6
2023-01-21T14:20:29.579Z,4.6
2023-01-21T14:22:27.683Z,4.9
2023-01-21T14:24:18.614Z,5.6
2023-01-21T14:26:19.601Z,4
2023-01-21T14:28:14.579Z,5.7
2023-01-21T14:30:13.249Z,4.1
2023-01-21T14:32:13.960Z,6.9
2023-01-21T14:34:11.770Z,6.8
2023-01-21T14:36:08.764Z,5.9
2023-01-21T14:38:12.047Z,5.2
2023-01-21T14:40:15.501Z,4.5
2023-01-21T14:42:07.245Z,4.2
2023-01-21T14:44:02.360Z,5.2
2023-01-21T14:46:17.365Z,5.9
2023-01-21T14:48:31.427Z,4.5
2023-01-21T14:50:01.935Z,5.7
2023-01-21T14:52:02.695Z,8.4
2023-01-21T14:54:04.466Z,5.7
2023-01-21T14:56:16.765Z,3.8
2023-01-21T14:58:01.421Z,5.3
2023-01-21T15:00:11.494Z,5.6
2023-01-21T15:02:17.179Z,4.6
2023-01-21T15:04:02.998Z,4.8
2023-01-21T15:06:07.621Z,4.3
2023-01-21T15:08:05.424Z,5.7
2023-01-21T15:10:08.557Z,5.1
2023-01-21T15:12:02.903Z,4.6
2023-01-21T15:14:07.912Z,3.6
2023-01-21T15:16:14.940Z,5.8
2023-01-21T15:18:18.662Z,4.1
2023-01-21T15:20:29.137Z,5.4
2023-01-21T15:22:19.823Z,6.5
2023-01-21T15:24:19.507Z,3.4
2023-01-21T15:26:05.375Z,5.8
2023-01-21T15:28:31.452Z,5.1
2023-01-21T15:30:25.411Z,4.8
2023-01-21T15:32:16.975Z,4.7
2023-01-21T15:34:01.225Z,4.9
2023-01-21T15:36:00.652Z,6.3
2023-01-21T15:38:08.415Z,5.3
2023-01-21T15:40:01.408Z,4.5
2023-01-21T15:42:13.684Z,3.7
2023-01-21T15:44:13.499Z,4.4
2023-01-21T15:46:08.810Z,6.9
2023-01-21T15:48:30.165Z,6.5
2023-01-21T15:50:05.062Z,9.3
2023-01-21T15:52:13.596Z,9.7
2023-01-21T15:54:12.836Z,6.3
2023-01-21T15:56:13.966Z,5.7
2023-01-21T15:58:08.294Z,4.5
2023-01-21T16:00:20.094Z,3.8
2023-01-21T16:02:15.730Z,5.1
2023-01-21T16:04:11.760Z,3.2
2023-01-21T16:06:02.187Z,5.4
2023-01-21T16:08:09.565Z,4.8
2023-01-21T16:10:07.510Z,4.1
2023-01-21T16:12:10.339Z,3.3
2023-01-21T16:14:05.019Z,4.4
2023-01-21T16:16:06.726Z,3.2
2023-01-21T16:18:10.458Z,9.1
2023-01-21T16:19:58.122Z,3.8
2023-01-21T16:22:00.146Z,5.8
2023-01-21T16:23:59.648Z,2.9
2023-01-21T16:25:54.525Z,6.8
2023-01-21T16:27:55.066Z,5.4
2023-01-21T16:29:55.918Z,3.6
2023-01-21T16:31:55.223Z,5.1
2023-01-21T16:33:53.825Z,5.3
2023-01-21T16:35:55.785Z,6.6
2023-01-21T16:37:53.913Z,10.3
2023-01-21T16:39:55.260Z,50.1
2023-01-21T16:42:00.755Z,21
2023-01-21T16:43:56.935Z,17.1
2023-01-21T16:45:54.917Z,10.8
2023-01-21T16:47:55.676Z,5.8
2023-01-21T16:49:52.942Z,5.1
2023-01-21T16:51:55.115Z,4.8
2023-01-21T16:53:52.867Z,4.4
2023-01-21T16:55:54.449Z,5.6
2023-01-21T16:57:54.474Z,5.4
2023-01-21T16:59:51.841Z,6.3
2023-01-21T17:01:53.689Z,4.3
2023-01-21T17:03:51.500Z,5.9
2023-01-21T17:05:53.489Z,4.3
2023-01-21T17:07:53.943Z,3.4
2023-01-21T17:09:56.336Z,4.2
2023-01-21T17:11:51.214Z,5.6
2023-01-21T17:13:52.176Z,5.8
2023-01-21T17:15:53.788Z,3.8
2023-01-21T17:17:55.552Z,5.4
2023-01-21T17:19:50.649Z,7.3
2023-01-21T17:21:55.308Z,5.1
2023-01-21T17:23:53.580Z,5.1
2023-01-21T17:25:54.930Z,4.3
2023-01-21T17:27:49.544Z,4.7
2023-01-21T17:29:49.410Z,5
2023-01-21T17:31:55.960Z,4.4
2023-01-21T17:34:02.897Z,4.8
2023-01-21T17:36:05.301Z,1.8
2023-01-21T17:37:54.502Z,3.5
2023-01-21T17:39:58.596Z,3
2023-01-21T17:41:48.495Z,2.3
2023-01-21T17:43:50.824Z,2.8
2023-01-21T17:45:50.593Z,4.7
2023-01-21T17:48:08.040Z,3.1
2023-01-21T17:49:53.960Z,2.8
2023-01-21T17:51:48.587Z,6.1
2023-01-21T17:53:52.764Z,3.3
2023-01-21T17:55:57.322Z,2.8
2023-01-21T17:57:47.428Z,2.5
2023-01-21T17:59:47.673Z,2.9
2023-01-21T18:01:47.106Z,5.2
2023-01-21T18:03:46.824Z,9.7
2023-01-21T18:05:46.657Z,35.1
2023-01-21T18:07:46.549Z,15.8
2023-01-21T18:09:46.395Z,175
2023-01-21T18:11:46.473Z,65
2023-01-21T18:13:46.610Z,180
2023-01-21T18:15:46.082Z,69.2
2023-01-21T18:17:49.059Z,141.1
2023-01-21T18:19:45.674Z,69.8
2023-01-21T18:21:45.523Z,51.8
2023-01-21T18:23:45.547Z,26.8
2023-01-21T18:25:45.874Z,15
2023-01-21T18:27:46.883Z,9.5
2023-01-21T18:29:44.773Z,9.5
2023-01-21T18:31:44.741Z,7.1
2023-01-21T18:33:44.524Z,5.8
2023-01-21T18:35:47.802Z,6.8
2023-01-21T18:37:44.096Z,5.3
2023-01-21T18:39:44.611Z,8.6
2023-01-21T18:41:43.946Z,4.6
2023-01-21T18:43:43.533Z,5.3
2023-01-21T18:45:43.562Z,4.3
2023-01-21T18:47:43.512Z,6.4
2023-01-21T18:49:44.000Z,6.1
2023-01-21T18:51:43.540Z,5
2023-01-21T18:53:42.802Z,3.5
2023-01-21T18:55:46.637Z,4.3
2023-01-21T18:57:44.896Z,5
2023-01-21T18:59:42.254Z,4.5
2023-01-21T19:01:42.992Z,5.5
2023-01-21T19:03:42.358Z,2.7
2023-01-21T19:05:44.414Z,3.7
2023-01-21T19:07:41.578Z,3.6
2023-01-21T19:09:41.430Z,3.3
2023-01-21T19:11:41.119Z,4.3
2023-01-21T19:13:40.946Z,3.2
2023-01-21T19:15:41.179Z,2.8
2023-01-21T19:17:40.665Z,6
2023-01-21T19:19:40.617Z,4.6
2023-01-21T19:21:40.558Z,7
2023-01-21T19:23:40.078Z,4.1
2023-01-21T19:25:39.849Z,5.5
2023-01-21T19:27:41.790Z,4.8
2023-01-21T19:29:39.525Z,5.1
2023-01-21T19:31:39.527Z,4.9
2023-01-21T19:33:39.137Z,5.1
2023-01-21T19:35:41.723Z,4.6
2023-01-21T19:37:39.502Z,4.9
2023-01-21T19:39:38.677Z,3.8
2023-01-21T19:41:38.452Z,3.7
2023-01-21T19:43:38.352Z,3.5
2023-01-21T19:45:38.251Z,5.5
2023-01-21T19:47:37.918Z,4.4
2023-01-21T19:49:37.816Z,5.2
2023-01-21T19:51:37.534Z,3.5
2023-01-21T19:53:37.341Z,5.3
2023-01-21T19:55:39.631Z,3.4
2023-01-21T19:57:36.967Z,5.5
2023-01-21T19:59:36.817Z,4.8
2023-01-21T20:01:36.637Z,5.3
2023-01-21T20:03:36.438Z,3.2
2023-01-21T20:05:36.298Z,4.3
2023-01-21T20:07:36.253Z,4.9
2023-01-21T20:09:35.732Z,3.8
2023-01-21T20:11:35.553Z,3.7
2023-01-21T20:13:35.395Z,3.9
2023-01-21T20:15:35.443Z,5.5
2023-01-21T20:17:36.577Z,4.8
2023-01-21T20:19:34.763Z,3.5
2023-01-21T20:21:36.266Z,4.3
2023-01-21T20:23:34.416Z,5.4
2023-01-21T20:25:36.828Z,5.2
2023-01-21T20:27:34.076Z,4.2
2023-01-21T20:29:34.111Z,3.9
2023-01-21T20:31:33.695Z,5.2
2023-01-21T20:33:35.246Z,4.4
2023-01-21T20:35:33.208Z,4.3
2023-01-21T20:37:33.339Z,5.7
2023-01-21T20:39:32.758Z,8.5
2023-01-21T20:41:32.571Z,7.5
2023-01-21T20:43:32.451Z,5.5
2023-01-21T20:45:35.776Z,5.1
2023-01-21T20:47:38.800Z,4.1
2023-01-21T20:49:31.847Z,4.4
2023-01-21T20:51:31.511Z,4.2
2023-01-21T20:53:31.873Z,3.5
2023-01-21T20:55:31.410Z,6.1
2023-01-21T20:57:31.018Z,5
2023-01-21T20:59:30.700Z,6
2023-01-21T21:01:30.668Z,8.4
2023-01-21T21:03:30.378Z,5.4
2023-01-21T21:05:31.363Z,5.6
2023-01-21T21:07:29.964Z,6.7
2023-01-21T21:09:29.737Z,5.1
2023-01-21T21:11:29.518Z,8.7
2023-01-21T21:13:29.346Z,8.1
2023-01-21T21:15:31.043Z,6.8
2023-01-21T21:17:28.912Z,4.9
2023-01-21T21:19:28.692Z,5.4
2023-01-21T21:21:28.514Z,5.9
2023-01-21T21:23:28.290Z,6.7
2023-01-21T21:25:29.850Z,6.7
2023-01-21T21:27:27.991Z,6.4
2023-01-21T21:29:27.737Z,4.9
2023-01-21T21:31:28.819Z,5.7
2023-01-21T21:33:27.321Z,5.3
2023-01-21T21:35:29.426Z,7.5
2023-01-21T21:37:27.036Z,5.5
2023-01-21T21:39:26.843Z,9.9
2023-01-21T21:41:26.502Z,6.6
2023-01-21T21:43:26.258Z,7.8
2023-01-21T21:45:26.034Z,6
2023-01-21T21:47:26.012Z,6.5
2023-01-21T21:49:26.261Z,6.9
2023-01-21T21:51:25.759Z,7.6
2023-01-21T21:53:25.279Z,9.5
2023-01-21T21:55:25.096Z,9.4
2023-01-21T21:57:24.974Z,11.3
2023-01-21T21:59:24.766Z,9.8
2023-01-21T22:01:27.316Z,14
2023-01-21T22:03:24.268Z,13.8
2023-01-21T22:05:24.325Z,15.7
2023-01-21T22:07:23.930Z,14.2
2023-01-21T22:09:23.806Z,16
2023-01-21T22:11:24.087Z,13.9
2023-01-21T22:13:23.577Z,13
2023-01-21T22:15:23.197Z,17.8
2023-01-21T22:17:22.989Z,19.9
2023-01-21T22:19:22.944Z,20.2
2023-01-21T22:21:24.261Z,16
2023-01-21T22:23:22.603Z,19.3
2023-01-21T22:25:22.396Z,17.7
2023-01-21T22:27:22.115Z,16.2
2023-01-21T22:29:21.883Z,16.7
2023-01-21T22:31:23.442Z,15
2023-01-21T22:33:21.503Z,12.3
2023-01-21T22:35:21.309Z,14.4
2023-01-21T22:37:21.216Z,14.3
2023-01-21T22:39:21.121Z,16
2023-01-21T22:41:23.338Z,16.6
2023-01-21T22:43:20.791Z,14.5
2023-01-21T22:45:22.111Z,16.5
2023-01-21T22:47:20.317Z,14.8
2023-01-21T22:49:20.280Z,15.6
2023-01-21T22:51:21.875Z,17
2023-01-21T22:53:19.898Z,16.7
2023-01-21T22:55:19.555Z,14.3
2023-01-21T22:57:19.719Z,15.3
2023-01-21T22:59:19.495Z,15.7
2023-01-21T23:01:23.236Z,16.6
2023-01-21T23:03:19.838Z,14.5
2023-01-21T23:05:18.952Z,18.1
2023-01-21T23:07:18.526Z,16.3
2023-01-21T23:09:18.343Z,14.3
2023-01-21T23:11:19.266Z,13.7
2023-01-21T23:13:18.208Z,15.2
2023-01-21T23:15:18.019Z,14.2
2023-01-21T23:17:17.652Z,16.6
2023-01-21T23:19:17.341Z,13.3
2023-01-21T23:21:19.501Z,11.6
2023-01-21T23:23:16.958Z,15.4
2023-01-21T23:25:17.000Z,11
2023-01-21T23:27:16.595Z,15
2023-01-21T23:29:16.354Z,16.5
2023-01-21T23:31:17.290Z,17.2
2023-01-21T23:33:16.001Z,13.8
2023-01-21T23:35:15.876Z,14
2023-01-21T23:37:15.684Z,12.5
2023-01-21T23:39:15.405Z,16
2023-01-21T23:41:15.827Z,16
2023-01-21T23:43:14.991Z,13.6
2023-01-21T23:45:15.063Z,11.7
2023-01-21T23:47:14.674Z,15.9
2023-01-21T23:49:14.551Z,11.5
2023-01-21T23:51:15.754Z,14.6
2023-01-21T23:53:14.235Z,14.8
2023-01-21T23:55:13.852Z,11.9
2023-01-21T23:57:13.616Z,13.8
2023-01-21T23:59:13.593Z,15.3
